Time;durP1;ratioP1;P1;durP2;ratioP2;P2;SDS_P1;SDS_P2;PMS_P1;PMS_P2;Temp;Humidity;BMP_temperature;BMP_pressure;BME280_temperature;BME280_humidity;BME280_pressure;Samples;Min_cycle;Max_cycle;Signal;HPM_P1;HPM_P2
2022/12/23 00:00:33;;;;;;;;;;;;;;;;;;8404112;28;28550;-76
2022/12/23 00:04:33;;;;;;;;;;;;;;;;;;8405756;28;29842;-76
2022/12/23 00:08:33;;;;;;;;;;;;;;;;;;8400370;28;27291;-76
2022/12/23 00:16:52;;;;;;;;;;;;;;;;;;8406326;28;27521;-77
2022/12/23 00:20:52;;;;;;;;;;;;;;;;;;8401238;28;27800;-77
2022/12/23 00:24:52;;;;;;;;;;;;;;;;;;8406752;28;28078;-77
2022/12/23 00:28:52;;;;;;;;;;;;;;;;;;8400388;28;27778;-76
2022/12/23 00:32:52;;;;;;;;;;;;;;;;;;8400652;28;27502;-77
2022/12/23 00:36:53;;;;;;;;;;;;;;;;;;8407710;28;27657;-77
2022/12/23 00:45:15;;;;;;;;;;;;;;;;;;8401480;28;27891;-76
2022/12/23 00:53:34;;;;;;;;;;;;;;;;;;8398338;28;27768;-79
2022/12/23 00:57:34;;;;;;;;;;;;;;;;;;8394274;27;29674;-76
2022/12/23 01:05:53;;;;;;;;;;;;;;;;;;8399558;28;27847;-77
2022/12/23 01:09:53;;;;;;;;;;;;;;;;;;8401719;28;29019;-78
2022/12/23 01:13:53;;;;;;;;;;;;;;;;;;8399728;28;27867;-77
2022/12/23 01:17:53;;;;;;;;;;;;;;;;;;8398885;28;28190;-77
2022/12/23 01:21:53;;;;;;;;;;;;;;;;;;8391089;28;28318;-77
2022/12/23 01:25:53;;;;;;;;;;;;;;;;;;8395590;28;28432;-76
2022/12/23 01:29:53;;;;;;;;;;;;;;;;;;8401310;28;27626;-76
2022/12/23 01:33:53;;;;;;;;;;;;;;;;;;8394883;28;27482;-78
2022/12/23 01:37:53;;;;;;;;;;;;;;;;;;8405400;28;28464;-77
2022/12/23 01:46:12;;;;;;;;;;;;;;;;;;8398522;28;27823;-79
2022/12/23 01:50:12;;;;;;;;;;;;;;;;;;8398729;28;27454;-79
2022/12/23 01:54:13;;;;;;;;;;;;;;;;;;8398411;28;28954;-79
2022/12/23 01:58:13;;;;;;;;;;;;;;;;;;8399412;28;27296;-79
2022/12/23 02:10:51;;;;;;;;;;;;;;;;;;8393314;28;27349;-77
2022/12/23 02:19:10;;;;;;;;;;;;;;;;;;8396489;28;27511;-76
2022/12/23 02:23:10;;;;;;;;;;;;;;;;;;8394562;28;27299;-76
2022/12/23 02:27:10;;;;;;;;;;;;;;;;;;8396464;28;27420;-76
2022/12/23 02:31:10;;;;;;;;;;;;;;;;;;8393634;28;27178;-76
2022/12/23 02:35:10;;;;;;;;;;;;;;;;;;8394841;28;27520;-77
2022/12/23 02:39:10;;;;;;;;;;;;;;;;;;8396446;28;29658;-76
2022/12/23 02:43:10;;;;;;;;;;;;;;;;;;8394295;28;27527;-76
2022/12/23 02:47:10;;;;;;;;;;;;;;;;;;8403166;28;27231;-77
2022/12/23 02:51:11;;;;;;;;;;;;;;;;;;8403366;28;28868;-79
2022/12/23 02:55:11;;;;;;;;;;;;;;;;;;8403723;28;27535;-77
2022/12/23 02:59:11;;;;;;;;;;;;;;;;;;8406508;28;28821;-75
2022/12/23 03:03:11;;;;;;;;;;;;;;;;;;8399752;28;27716;-76
2022/12/23 03:50:38;;;;;;;;;;;;;;;;;;8435375;27;27814;-79
2022/12/23 03:54:38;;;;;;;;;;;;;;;;;;8411006;27;27263;-78
2022/12/23 03:58:38;;;;;;;;;;;;;;;;;;8416539;27;27290;-77
2022/12/23 04:02:38;;;;;;;;;;;;;;;;;;8410154;27;28351;-78
2022/12/23 04:06:38;;;;;;;;;;;;;;;;;;8406270;27;28884;-78
2022/12/23 04:10:38;;;;;;;;;;;;;;;;;;8412775;27;27505;-80
2022/12/23 04:14:38;;;;;;;;;;;;;;;;;;8413925;27;27467;-79
2022/12/23 04:18:38;;;;;;;;;;;;;;;;;;8412905;27;27706;-78
2022/12/23 04:22:39;;;;;;;;;;;;;;;;;;8415898;27;27400;-78
2022/12/23 04:26:39;;;;;;;;;;;;;;;;;;8419143;27;27425;-78
2022/12/23 04:30:39;;;;;;;;;;;;;;;;;;8404953;27;29956;-77
2022/12/23 04:34:39;;;;;;;;;;;;;;;;;;8408925;27;27461;-77
2022/12/23 04:38:39;;;;;;;;;;;;;;;;;;8406403;27;28840;-78
2022/12/23 04:42:39;;;;;;;;;;;;;;;;;;8415690;27;27670;-76
2022/12/23 04:46:39;;;;;;;;;;;;;;;;;;8416106;27;28287;-77
2022/12/23 04:50:39;;;;;;;;;;;;;;;;;;8447617;27;28401;-77
2022/12/23 04:54:39;;;;;;;;;;;;;;;;;;8446774;27;27512;-80
2022/12/23 04:58:39;;;;;;;;;;;;;;;;;;8442009;27;28894;-77
2022/12/23 05:02:39;;;;;;;;;;;;;;;;;;8422378;27;28282;-79
2022/12/23 05:06:39;;;;;;;;;;;;;;;;;;8423410;27;27314;-80
2022/12/23 05:10:39;;;;;;;;;;;;;;;;;;8421124;27;27718;-79
2022/12/23 05:14:40;;;;;;;;;;;;;;;;;;8418779;27;28679;-77
2022/12/23 05:18:40;;;;;;;;;;;;;;;;;;8420800;27;28595;-79
2022/12/23 05:22:40;;;;;;;;;;;;;;;;;;8425174;27;27129;-80
2022/12/23 05:26:40;;;;;;;;;;;;;;;;;;8422036;27;27293;-77
2022/12/23 05:30:40;;;;;;;;;;;;;;;;;;8425488;27;27565;-77
2022/12/23 05:34:40;;;;;;;;;;;;;;;;;;8427781;27;27649;-78
2022/12/23 05:38:40;;;;;;;;;;;;;;;;;;8423004;27;27259;-78
2022/12/23 05:42:40;;;;;;;;;;;;;;;;;;8424542;27;27949;-77
2022/12/23 05:46:40;;;;;;;;;;;;;;;;;;8423575;27;28569;-79
2022/12/23 05:50:40;;;;;;;;;;;;;;;;;;8421156;27;28873;-77
2022/12/23 05:54:40;;;;;;;;;;;;;;;;;;8420145;27;30148;-76
2022/12/23 05:58:40;;;;;;;;;;;;;;;;;;8420162;27;27436;-77
2022/12/23 06:02:41;;;;;;;;;;;;;;;;;;8417489;27;29855;-77
2022/12/23 06:06:41;;;;;;;;;;;;;;;;;;8422543;27;28510;-77
2022/12/23 06:10:41;;;;;;;;;;;;;;;;;;8421406;27;28392;-77
2022/12/23 06:14:41;;;;;;;;;;;;;;;;;;8423158;27;27404;-80
2022/12/23 06:18:41;;;;;;;;;;;;;;;;;;8424473;27;28360;-79
2022/12/23 06:22:41;;;;;;;;;;;;;;;;;;8422369;27;27265;-79
2022/12/23 06:26:41;;;;;;;;;;;;;;;;;;8425369;27;27594;-79
2022/12/23 06:30:41;;;;;;;;;;;;;;;;;;8419872;27;27307;-78
2022/12/23 06:34:41;;;;;;;;;;;;;;;;;;8423993;27;27401;-78
2022/12/23 06:38:41;;;;;;;;;;;;;;;;;;8423338;27;27579;-79
2022/12/23 06:42:41;;;;;;;;;;;;;;;;;;8421750;27;28818;-78
2022/12/23 06:46:42;;;;;;;;;;;;;;;;;;8421571;27;27358;-77
2022/12/23 06:50:42;;;;;;;;;;;;;;;;;;8421735;27;29257;-77
2022/12/23 06:54:42;;;;;;;;;;;;;;;;;;8421384;27;27714;-79
2022/12/23 06:58:42;;;;;;;;;;;;;;;;;;8421296;27;27712;-77
2022/12/23 07:02:42;;;;;;;;;;;;;;;;;;8418877;27;28757;-78
2022/12/23 07:06:42;;;;;;;;;;;;;;;;;;8419999;27;28803;-77
2022/12/23 07:10:42;;;;;;;;;;;;;;;;;;8422494;27;28522;-78
2022/12/23 07:14:42;;;;;;;;;;;;;;;;;;8423882;27;27811;-76
2022/12/23 07:18:42;;;;;;;;;;;;;;;;;;8418672;27;28564;-78
2022/12/23 07:22:43;;;;;;;;;;;;;;;;;;8417163;27;28255;-80
2022/12/23 07:26:43;;;;;;;;;;;;;;;;;;8420073;27;29115;-79
2022/12/23 07:30:43;;;;;;;;;;;;;;;;;;8421421;27;27611;-79
2022/12/23 07:34:43;;;;;;;;;;;;;;;;;;8419667;27;28465;-77
2022/12/23 07:38:43;;;;;;;;;;;;;;;;;;8419433;27;27154;-79
2022/12/23 07:42:43;;;;;;;;;;;;;;;;;;8420875;27;27421;-78
2022/12/23 07:46:43;;;;;;;;;;;;;;;;;;8419542;27;27341;-78
2022/12/23 07:50:43;;;;;;;;;;;;;;;;;;8419868;27;28601;-78
2022/12/23 07:54:43;;;;;;;;;;;;;;;;;;8421946;27;28086;-77
2022/12/23 07:58:43;;;;;;;;;;;;;;;;;;8417224;27;29796;-77
2022/12/23 08:02:43;;;;;;;;;;;;;;;;;;8419375;27;28807;-76
2022/12/23 08:06:43;;;;;;;;;;;;;;;;;;8419902;27;28642;-77
2022/12/23 08:10:44;;;;;;;;;;;;;;;;;;8418900;27;28920;-77
2022/12/23 08:14:44;;;;;;;;;;;;;;;;;;8420096;27;28076;-76
2022/12/23 08:18:44;;;;;;;;;;;;;;;;;;8417984;27;28827;-78
2022/12/23 08:22:44;;;;;;;;;;;;;;;;;;8417937;27;28648;-77
2022/12/23 08:26:45;;;;;;;;;;;;;;;;;;8421061;27;28247;-77
2022/12/23 08:30:45;;;;;;;;;;;;;;;;;;8420050;27;28147;-78
2022/12/23 08:34:45;;;;;;;;;;;;;;;;;;8421378;27;28452;-76
2022/12/23 08:38:45;;;;;;;;;;;;;;;;;;8424075;27;27672;-77
2022/12/23 08:42:45;;;;;;;;;;;;;;;;;;8421463;27;27699;-77
2022/12/23 08:46:45;;;;;;;;;;;;;;;;;;8427538;27;28533;-77
2022/12/23 08:50:45;;;;;;;;;;;;;;;;;;8426689;27;27504;-76
2022/12/23 08:54:45;;;;;;;;;;;;;;;;;;8424535;27;27605;-77
2022/12/23 08:58:45;;;;;;;;;;;;;;;;;;8424125;27;30034;-78
2022/12/23 09:02:45;;;;;;;;;;;;;;;;;;8428133;27;28560;-78
2022/12/23 09:06:45;;;;;;;;;;;;;;;;;;8426193;27;27542;-79
2022/12/23 09:10:45;;;;;;;;;;;;;;;;;;8423136;27;28759;-77
2022/12/23 09:14:46;;;;;;;;;;;;;;;;;;8423549;27;29158;-78
2022/12/23 09:18:46;;;;;;;;;;;;;;;;;;8424555;27;27455;-76
2022/12/23 09:22:46;;;;;;;;;;;;;;;;;;8422106;27;28552;-77
2022/12/23 09:26:46;;;;;;;;;;;;;;;;;;8420370;27;27348;-76
2022/12/23 09:30:47;;;;;;;;;;;;;;;;;;8420607;27;28695;-77
2022/12/23 09:34:47;;;;;;;;;;;;;;;;;;8423618;27;27479;-77
2022/12/23 09:38:47;;;;;;;;;;;;;;;;;;8422341;27;27462;-77
2022/12/23 09:42:47;;;;;;;;;;;;;;;;;;8425655;27;27225;-79
2022/12/23 09:46:47;;;;;;;;;;;;;;;;;;8425991;27;28087;-79
2022/12/23 09:50:47;;;;;;;;;;;;;;;;;;8419325;27;28051;-77
2022/12/23 09:54:47;;;;;;;;;;;;;;;;;;8421963;27;28403;-78
2022/12/23 09:58:48;;;;;;;;;;;;;;;;;;8425440;27;28173;-79
2022/12/23 10:02:48;;;;;;;;;;;;;;;;;;8422325;27;27712;-78
2022/12/23 10:06:48;;;;;;;;;;;;;;;;;;8422556;27;28031;-76
2022/12/23 10:10:48;;;;;;;;;;;;;;;;;;8419431;27;27406;-77
2022/12/23 10:14:48;;;;;;;;;;;;;;;;;;8423818;27;27390;-76
2022/12/23 10:18:48;;;;;;;;;;;;;;;;;;8419828;27;28624;-76
2022/12/23 10:22:48;;;;;;;;;;;;;;;;;;8421504;27;29018;-78
2022/12/23 10:26:48;;;;;;;;;;;;;;;;;;8418994;27;28434;-76
2022/12/23 10:30:48;;;;;;;;;;;;;;;;;;8423776;27;27201;-77
2022/12/23 10:34:48;;;;;;;;;;;;;;;;;;8419590;27;27665;-78
2022/12/23 10:38:48;;;;;;;;;;;;;;;;;;8423847;27;27434;-77
2022/12/23 10:42:48;;;;;;;;;;;;;;;;;;8422338;27;27255;-76
2022/12/23 10:46:49;;;;;;;;;;;;;;;;;;8422417;27;29529;-79
2022/12/23 10:50:49;;;;;;;;;;;;;;;;;;8421568;27;27692;-76
2022/12/23 10:54:49;;;;;;;;;;;;;;;;;;8418210;27;27268;-75
2022/12/23 10:58:49;;;;;;;;;;;;;;;;;;8419338;27;29140;-75
2022/12/23 11:02:49;;;;;;;;;;;;;;;;;;8420579;27;29737;-78
2022/12/23 11:06:49;;;;;;;;;;;;;;;;;;8423587;27;27212;-76
2022/12/23 11:10:49;;;;;;;;;;;;;;;;;;8415456;27;28411;-77
2022/12/23 11:14:50;;;;;;;;;;;;;;;;;;8416863;27;29583;-75
2022/12/23 11:18:50;;;;;;;;;;;;;;;;;;8417711;27;29770;-76
2022/12/23 11:22:50;;;;;;;;;;;;;;;;;;8417924;27;27130;-75
2022/12/23 11:26:50;;;;;;;;;;;;;;;;;;8417486;27;29946;-76
2022/12/23 11:30:50;;;;;;;;;;;;;;;;;;8418088;27;27422;-76
2022/12/23 11:34:50;;;;;;;;;;;;;;;;;;8416341;27;28492;-77
2022/12/23 11:38:50;;;;;;;;;;;;;;;;;;8416779;27;27094;-77
2022/12/23 11:42:50;;;;;;;;;;;;;;;;;;8416310;27;27382;-77
2022/12/23 11:46:50;;;;;;;;;;;;;;;;;;8415053;27;27406;-76
2022/12/23 11:50:50;;;;;;;;;;;;;;;;;;8412968;27;27909;-78
2022/12/23 11:54:51;;;;;;;;;;;;;;;;;;8411650;27;28778;-78
2022/12/23 11:58:52;;;;;;;;;;;;;;;;;;8416111;27;27196;-76
2022/12/23 12:02:52;;;;;;;;;;;;;;;;;;8411923;27;27412;-76
2022/12/23 12:06:52;;;;;;;;;;;;;;;;;;8420118;27;27364;-77
2022/12/23 12:10:52;;;;;;;;;;;;;;;;;;8427525;27;28387;-77
2022/12/23 12:14:53;;;;;;;;;;;;;;;;;;8417490;27;29132;-76
2022/12/23 12:18:53;;;;;;;;;;;;;;;;;;8428298;27;27474;-80
2022/12/23 12:22:53;;;;;;;;;;;;;;;;;;8425117;27;27386;-79
2022/12/23 12:26:53;;;;;;;;;;;;;;;;;;8423992;27;28806;-76
2022/12/23 12:30:53;;;;;;;;;;;;;;;;;;8420942;27;28412;-78
2022/12/23 12:34:53;;;;;;;;;;;;;;;;;;8422757;27;27482;-77
2022/12/23 12:38:53;;;;;;;;;;;;;;;;;;8422452;27;28218;-78
2022/12/23 12:42:53;;;;;;;;;;;;;;;;;;8424253;27;29795;-77
2022/12/23 12:46:53;;;;;;;;;;;;;;;;;;8418427;27;29074;-76
2022/12/23 12:50:53;;;;;;;;;;;;;;;;;;8420629;27;28470;-76
2022/12/23 12:54:54;;;;;;;;;;;;;;;;;;8422403;27;27541;-80
2022/12/23 12:58:54;;;;;;;;;;;;;;;;;;8425579;27;27378;-78
2022/12/23 13:02:54;;;;;;;;;;;;;;;;;;8425393;27;27733;-79
2022/12/23 13:06:54;;;;;;;;;;;;;;;;;;8424883;27;27355;-79
2022/12/23 13:10:54;;;;;;;;;;;;;;;;;;8425088;27;28428;-80
2022/12/23 13:14:54;;;;;;;;;;;;;;;;;;8423444;27;27408;-80
2022/12/23 13:18:54;;;;;;;;;;;;;;;;;;8422783;27;27314;-79
2022/12/23 13:22:54;;;;;;;;;;;;;;;;;;8420028;27;27345;-79
2022/12/23 13:26:54;;;;;;;;;;;;;;;;;;8422858;27;28592;-79
2022/12/23 13:30:54;;;;;;;;;;;;;;;;;;8421380;27;30088;-79
2022/12/23 13:34:54;;;;;;;;;;;;;;;;;;8421312;27;27478;-80
2022/12/23 13:38:54;;;;;;;;;;;;;;;;;;8422496;27;29407;-77
2022/12/23 13:42:55;;;;;;;;;;;;;;;;;;8421352;27;28808;-78
2022/12/23 13:46:55;;;;;;;;;;;;;;;;;;8417904;27;27888;-78
2022/12/23 13:50:55;;;;;;;;;;;;;;;;;;8421212;27;27221;-77
2022/12/23 13:54:55;;;;;;;;;;;;;;;;;;8426522;27;27322;-78
2022/12/23 13:58:55;;;;;;;;;;;;;;;;;;8423182;27;27412;-78
2022/12/23 14:02:55;;;;;;;;;;;;;;;;;;8419800;27;28431;-80
2022/12/23 14:06:55;;;;;;;;;;;;;;;;;;8419631;27;28259;-81
2022/12/23 14:10:55;;;;;;;;;;;;;;;;;;8420864;27;28705;-79
2022/12/23 14:14:55;;;;;;;;;;;;;;;;;;8424901;27;27214;-80
2022/12/23 14:18:55;;;;;;;;;;;;;;;;;;8424284;27;27204;-80
2022/12/23 14:22:56;;;;;;;;;;;;;;;;;;8424325;27;28093;-80
2022/12/23 14:26:56;;;;;;;;;;;;;;;;;;8417483;27;28824;-78
2022/12/23 14:30:56;;;;;;;;;;;;;;;;;;8421978;27;28849;-78
2022/12/23 14:34:56;;;;;;;;;;;;;;;;;;8416304;27;27378;-77
2022/12/23 14:38:56;;;;;;;;;;;;;;;;;;8421125;27;27365;-78
2022/12/23 14:42:56;;;;;;;;;;;;;;;;;;8421140;27;27254;-78
2022/12/23 14:46:56;;;;;;;;;;;;;;;;;;8420344;27;27351;-80
2022/12/23 14:50:56;;;;;;;;;;;;;;;;;;8421724;27;27428;-77
2022/12/23 14:54:56;;;;;;;;;;;;;;;;;;8421588;27;28170;-78
2022/12/23 14:58:56;;;;;;;;;;;;;;;;;;8421773;27;27269;-79
2022/12/23 15:02:57;;;;;;;;;;;;;;;;;;8423622;27;27670;-79
2022/12/23 15:06:57;;;;;;;;;;;;;;;;;;8421056;27;27761;-80
2022/12/23 15:10:57;;;;;;;;;;;;;;;;;;8420967;27;27263;-80
2022/12/23 15:14:57;;;;;;;;;;;;;;;;;;8418500;27;28238;-79
2022/12/23 15:18:57;;;;;;;;;;;;;;;;;;8414218;27;27115;-81
2022/12/23 15:22:57;;;;;;;;;;;;;;;;;;8416653;27;28220;-80
2022/12/23 15:26:57;;;;;;;;;;;;;;;;;;8420046;27;27821;-79
2022/12/23 15:30:57;;;;;;;;;;;;;;;;;;8419182;27;27408;-78
2022/12/23 15:34:57;;;;;;;;;;;;;;;;;;8419621;27;27343;-78
2022/12/23 15:38:57;;;;;;;;;;;;;;;;;;8419952;27;27394;-77
2022/12/23 15:42:58;;;;;;;;;;;;;;;;;;8422562;27;27133;-79
2022/12/23 15:46:58;;;;;;;;;;;;;;;;;;8420865;27;27573;-78
2022/12/23 15:50:58;;;;;;;;;;;;;;;;;;8422325;27;27908;-78
2022/12/23 15:55:00;;;;;;;;;;;;;;;;;;8416031;27;27640;-78
2022/12/23 15:59:00;;;;;;;;;;;;;;;;;;8414780;27;27479;-79
2022/12/23 16:03:00;;;;;;;;;;;;;;;;;;8425176;27;27783;-80
2022/12/23 16:07:00;;;;;;;;;;;;;;;;;;8417064;27;28048;-79
2022/12/23 16:11:00;;;;;;;;;;;;;;;;;;8415531;27;28752;-79
2022/12/23 16:15:00;;;;;;;;;;;;;;;;;;8415751;27;27592;-79
2022/12/23 16:19:01;;;;;;;;;;;;;;;;;;8420029;27;28795;-80
2022/12/23 16:23:01;;;;;;;;;;;;;;;;;;8416669;27;27332;-80
2022/12/23 16:27:01;;;;;;;;;;;;;;;;;;8419153;27;29675;-78
2022/12/23 16:31:01;;;;;;;;;;;;;;;;;;8411194;27;28696;-79
2022/12/23 16:35:01;;;;;;;;;;;;;;;;;;8420667;27;28222;-78
2022/12/23 16:39:01;;;;;;;;;;;;;;;;;;8418383;27;27425;-78
2022/12/23 16:43:01;;;;;;;;;;;;;;;;;;8421392;27;27529;-77
2022/12/23 16:47:01;;;;;;;;;;;;;;;;;;8417086;27;28555;-80
2022/12/23 16:51:01;;;;;;;;;;;;;;;;;;8418436;27;27228;-78
2022/12/23 16:55:01;;;;;;;;;;;;;;;;;;8415384;27;27777;-80
2022/12/23 16:59:01;;;;;;;;;;;;;;;;;;8421977;27;29441;-78
2022/12/23 17:03:01;;;;;;;;;;;;;;;;;;8426817;27;29118;-79
2022/12/23 17:07:02;;;;;;;;;;;;;;;;;;8425260;27;28034;-79
2022/12/23 17:11:02;;;;;;;;;;;;;;;;;;8421803;27;28626;-80
2022/12/23 17:15:02;;;;;;;;;;;;;;;;;;8422507;27;27467;-77
2022/12/23 17:19:04;;;;;;;;;;;;;;;;;;8418956;27;28139;-79
2022/12/23 17:23:04;;;;;;;;;;;;;;;;;;8420823;27;27485;-79
2022/12/23 17:27:04;;;;;;;;;;;;;;;;;;8423378;27;27377;-78
2022/12/23 17:31:04;;;;;;;;;;;;;;;;;;8420826;27;28704;-78
2022/12/23 17:35:04;;;;;;;;;;;;;;;;;;8419328;27;27353;-78
2022/12/23 17:39:04;;;;;;;;;;;;;;;;;;8422711;27;28437;-79
2022/12/23 17:43:04;;;;;;;;;;;;;;;;;;8424929;27;28045;-78
2022/12/23 17:47:04;;;;;;;;;;;;;;;;;;8420701;27;27540;-80
2022/12/23 17:51:04;;;;;;;;;;;;;;;;;;8418599;27;28664;-81
2022/12/23 17:55:05;;;;;;;;;;;;;;;;;;8422252;27;28455;-80
2022/12/23 17:59:05;;;;;;;;;;;;;;;;;;8423000;27;27461;-82
2022/12/23 18:03:05;;;;;;;;;;;;;;;;;;8423961;27;28729;-80
2022/12/23 18:07:05;;;;;;;;;;;;;;;;;;8415720;27;28207;-79
2022/12/23 18:11:05;;;;;;;;;;;;;;;;;;8421188;27;27897;-80
2022/12/23 18:15:05;;;;;;;;;;;;;;;;;;8423801;27;27456;-81
2022/12/23 18:19:05;;;;;;;;;;;;;;;;;;8423586;27;27241;-80
2022/12/23 18:23:05;;;;;;;;;;;;;;;;;;8421311;27;27392;-79
2022/12/23 18:27:05;;;;;;;;;;;;;;;;;;8420167;27;28332;-79
2022/12/23 18:31:05;;;;;;;;;;;;;;;;;;8419506;27;27811;-79
2022/12/23 18:35:05;;;;;;;;;;;;;;;;;;8420920;27;27401;-79
2022/12/23 18:39:05;;;;;;;;;;;;;;;;;;8423023;27;29677;-82
2022/12/23 18:43:06;;;;;;;;;;;;;;;;;;8420995;27;27486;-80
2022/12/23 18:47:06;;;;;;;;;;;;;;;;;;8421746;27;28620;-77
2022/12/23 18:51:06;;;;;;;;;;;;;;;;;;8422488;27;28117;-79
2022/12/23 18:55:06;;;;;;;;;;;;;;;;;;8418458;27;28474;-78
2022/12/23 18:59:06;;;;;;;;;;;;;;;;;;8425045;27;27435;-80
2022/12/23 19:03:06;;;;;;;;;;;;;;;;;;8423215;27;28163;-78
2022/12/23 19:07:06;;;;;;;;;;;;;;;;;;8423574;27;27403;-78
2022/12/23 19:11:07;;;;;;;;;;;;;;;;;;8420472;27;27246;-77
2022/12/23 19:15:07;;;;;;;;;;;;;;;;;;8423925;27;28192;-77
2022/12/23 19:19:07;;;;;;;;;;;;;;;;;;8422478;27;28871;-79
2022/12/23 19:23:07;;;;;;;;;;;;;;;;;;8422954;27;27171;-78
2022/12/23 19:27:07;;;;;;;;;;;;;;;;;;8420686;27;27781;-78
2022/12/23 19:31:08;;;;;;;;;;;;;;;;;;8423268;27;27132;-78
2022/12/23 19:35:08;;;;;;;;;;;;;;;;;;8420430;27;27500;-80
2022/12/23 19:39:10;;;;;;;;;;;;;;;;;;8422202;27;28344;-79
2022/12/23 19:43:10;;;;;;;;;;;;;;;;;;8418955;27;30566;-78
2022/12/23 19:47:10;;;;;;;;;;;;;;;;;;8421118;27;28845;-78
2022/12/23 19:51:10;;;;;;;;;;;;;;;;;;8415712;27;28607;-80
2022/12/23 19:55:11;;;;;;;;;;;;;;;;;;8421144;27;28630;-80
2022/12/23 19:59:11;;;;;;;;;;;;;;;;;;8419123;27;27394;-78
2022/12/23 20:03:11;;;;;;;;;;;;;;;;;;8424360;27;27897;-80
2022/12/23 20:07:12;;;;;;;;;;;;;;;;;;8420548;27;27232;-78
2022/12/23 20:11:12;;;;;;;;;;;;;;;;;;8422496;27;28137;-78
2022/12/23 20:15:12;;;;;;;;;;;;;;;;;;8414402;27;29631;-79
2022/12/23 20:19:12;;;;;;;;;;;;;;;;;;8417669;27;28425;-78
2022/12/23 20:23:12;;;;;;;;;;;;;;;;;;8416910;27;27203;-79
2022/12/23 20:27:12;;;;;;;;;;;;;;;;;;8417917;27;28751;-80
2022/12/23 20:31:12;;;;;;;;;;;;;;;;;;8419411;27;28675;-80
2022/12/23 20:35:12;;;;;;;;;;;;;;;;;;8423658;27;29838;-81
2022/12/23 20:39:12;;;;;;;;;;;;;;;;;;8428061;27;27335;-80
2022/12/23 20:43:13;;;;;;;;;;;;;;;;;;8428313;27;27333;-80
2022/12/23 20:47:13;;;;;;;;;;;;;;;;;;8425298;27;27844;-79
2022/12/23 20:51:13;;;;;;;;;;;;;;;;;;8425903;27;28455;-77
2022/12/23 20:55:13;;;;;;;;;;;;;;;;;;8429101;27;27520;-79
2022/12/23 20:59:13;;;;;;;;;;;;;;;;;;8422396;27;27284;-79
2022/12/23 21:03:13;;;;;;;;;;;;;;;;;;8420490;27;27477;-79
2022/12/23 21:07:13;;;;;;;;;;;;;;;;;;8421546;27;27764;-80
2022/12/23 21:11:13;;;;;;;;;;;;;;;;;;8422927;27;28504;-78
2022/12/23 21:15:13;;;;;;;;;;;;;;;;;;8424034;27;28615;-76
2022/12/23 21:19:13;;;;;;;;;;;;;;;;;;8418635;27;28616;-80
2022/12/23 21:23:13;;;;;;;;;;;;;;;;;;8421959;27;28824;-79
2022/12/23 21:27:14;;;;;;;;;;;;;;;;;;8423575;27;27346;-78
2022/12/23 21:31:14;;;;;;;;;;;;;;;;;;8419801;27;28231;-79
2022/12/23 21:35:14;;;;;;;;;;;;;;;;;;8423105;27;28456;-78
2022/12/23 21:39:14;;;;;;;;;;;;;;;;;;8425722;27;27120;-81
2022/12/23 21:43:14;;;;;;;;;;;;;;;;;;8423303;27;28426;-80
2022/12/23 21:47:14;;;;;;;;;;;;;;;;;;8422648;27;27613;-80
2022/12/23 21:51:14;;;;;;;;;;;;;;;;;;8422985;27;27840;-79
2022/12/23 21:55:16;;;;;;;;;;;;;;;;;;8425600;27;29434;-78
2022/12/23 21:59:16;;;;;;;;;;;;;;;;;;8420506;27;27291;-78
2022/12/23 22:03:17;;;;;;;;;;;;;;;;;;8416849;27;27392;-78
2022/12/23 22:07:17;;;;;;;;;;;;;;;;;;8423702;27;28409;-78
2022/12/23 22:11:17;;;;;;;;;;;;;;;;;;8418717;27;27318;-78
2022/12/23 22:15:18;;;;;;;;;;;;;;;;;;8420732;27;28725;-79
2022/12/23 22:19:18;;;;;;;;;;;;;;;;;;8425221;27;28371;-79
2022/12/23 22:23:18;;;;;;;;;;;;;;;;;;8423470;27;27635;-79
2022/12/23 22:27:18;;;;;;;;;;;;;;;;;;8423819;27;27195;-79
2022/12/23 22:31:18;;;;;;;;;;;;;;;;;;8422934;27;27371;-80
2022/12/23 22:35:18;;;;;;;;;;;;;;;;;;8422747;27;28986;-78
2022/12/23 22:39:18;;;;;;;;;;;;;;;;;;8421102;27;29354;-78
2022/12/23 22:43:18;;;;;;;;;;;;;;;;;;8423952;27;27771;-79
2022/12/23 22:47:18;;;;;;;;;;;;;;;;;;8420679;27;27507;-77
2022/12/23 22:51:18;;;;;;;;;;;;;;;;;;8422501;27;28191;-78
2022/12/23 22:55:19;;;;;;;;;;;;;;;;;;8420076;27;28543;-77
2022/12/23 22:59:19;;;;;;;;;;;;;;;;;;8423066;27;28144;-76
2022/12/23 23:03:19;;;;;;;;;;;;;;;;;;8423002;27;28688;-79
2022/12/23 23:07:19;;;;;;;;;;;;;;;;;;8421895;27;27265;-80
2022/12/23 23:11:20;;;;;;;;;;;;;;;;;;8420224;27;27638;-79
2022/12/23 23:15:20;;;;;;;;;;;;;;;;;;8422782;27;27341;-79
2022/12/23 23:19:20;;;;;;;;;;;;;;;;;;8424127;27;27396;-77
2022/12/23 23:23:20;;;;;;;;;;;;;;;;;;8424676;27;27394;-79
2022/12/23 23:27:20;;;;;;;;;;;;;;;;;;8414503;27;28092;-79
2022/12/23 23:31:20;;;;;;;;;;;;;;;;;;8415097;27;27485;-78
2022/12/23 23:35:20;;;;;;;;;;;;;;;;;;8417956;27;27849;-79
2022/12/23 23:39:20;;;;;;;;;;;;;;;;;;8415300;27;28505;-78
2022/12/23 23:43:20;;;;;;;;;;;;;;;;;;8415512;27;28600;-79
2022/12/23 23:47:20;;;;;;;;;;;;;;;;;;8415727;27;28467;-78
2022/12/23 23:51:21;;;;;;;;;;;;;;;;;;8416961;27;27419;-78
2022/12/23 23:55:21;;;;;;;;;;;;;;;;;;8418088;27;28022;-78
2022/12/23 23:59:21;;;;;;;;;;;;;;;;;;8410969;27;28573;-78
